createdAt,value
2019-04-25T00:02:01.949Z,1.80
2019-04-25T00:04:31.502Z,1.93
2019-04-25T00:06:59.084Z,1.67
2019-04-25T00:09:27.913Z,1.83
2019-04-25T00:11:55.676Z,1.47
2019-04-25T00:14:25.100Z,1.90
2019-04-25T00:16:52.928Z,1.97
2019-04-25T00:19:21.905Z,1.60
2019-04-25T00:22:01.862Z,1.90
2019-04-25T00:24:49.471Z,1.80
2019-04-25T00:27:17.233Z,1.50
2019-04-25T00:29:45.760Z,1.80
2019-04-25T00:32:13.133Z,1.90
2019-04-25T00:34:43.187Z,1.53
2019-04-25T00:37:09.661Z,1.70
2019-04-25T00:39:36.984Z,1.63
2019-04-25T00:42:04.543Z,2.10
2019-04-25T00:44:32.054Z,2.00
2019-04-25T00:46:59.485Z,1.80
2019-04-25T00:49:26.695Z,1.70
2019-04-25T00:51:54.064Z,1.60
2019-04-25T00:54:22.743Z,2.10
2019-04-25T00:56:51.046Z,1.73
2019-04-25T00:59:29.164Z,1.83
2019-04-25T01:02:34.380Z,1.80
2019-04-25T01:05:03.741Z,1.60
2019-04-25T01:07:32.354Z,1.57
2019-04-25T01:10:02.289Z,1.63
2019-04-25T01:12:31.302Z,1.73
2019-04-25T01:14:58.764Z,1.60
2019-04-25T01:17:27.184Z,1.53
2019-04-25T01:19:56.930Z,1.80
2019-04-25T01:22:23.605Z,1.60
2019-04-25T01:24:51.461Z,1.70
2019-04-25T01:27:18.836Z,1.87
2019-04-25T01:29:46.308Z,1.50
2019-04-25T01:32:17.352Z,1.83
2019-04-25T01:35:01.736Z,2.07
2019-04-25T01:37:51.130Z,1.70
2019-04-25T01:40:38.179Z,1.83
2019-04-25T01:43:25.028Z,1.50
2019-04-25T01:45:54.048Z,1.73
2019-04-25T01:48:23.367Z,1.50
2019-04-25T01:50:50.808Z,1.80
2019-04-25T01:53:18.113Z,1.53
2019-04-25T01:55:53.260Z,1.63
2019-04-25T01:58:14.529Z,1.70
2019-04-25T02:00:45.384Z,1.70
2019-04-25T02:03:13.502Z,1.60
2019-04-25T02:05:40.844Z,1.30
2019-04-25T02:08:08.095Z,1.70
2019-04-25T02:10:35.370Z,1.60
2019-04-25T02:13:05.172Z,1.40
2019-04-25T02:15:33.441Z,1.47
2019-04-25T02:18:01.809Z,1.73
2019-04-25T02:20:29.537Z,1.43
2019-04-25T02:22:57.844Z,1.60
2019-04-25T02:25:25.474Z,1.70
2019-04-25T02:27:53.410Z,1.60
2019-04-25T02:30:25.360Z,1.20
2019-04-25T02:32:56.983Z,1.63
2019-04-25T02:35:21.624Z,1.50
2019-04-25T02:37:49.173Z,1.90
2019-04-25T02:40:16.925Z,1.53
2019-04-25T02:42:44.387Z,1.60
2019-04-25T02:45:30.032Z,1.47
2019-04-25T02:48:16.891Z,1.63
2019-04-25T02:50:55.241Z,1.60
2019-04-25T02:53:36.916Z,1.50
2019-04-25T02:56:07.917Z,1.10
2019-04-25T02:58:34.104Z,1.27
2019-04-25T03:01:12.456Z,1.40
2019-04-25T03:03:30.580Z,1.20
2019-04-25T03:05:59.355Z,1.40
2019-04-25T03:08:26.973Z,1.67
2019-04-25T03:10:54.455Z,1.50
2019-04-25T03:13:24.435Z,1.50
2019-04-25T03:15:52.685Z,1.50
2019-04-25T03:18:22.046Z,1.47
2019-04-25T03:20:55.108Z,1.47
2019-04-25T03:23:43.109Z,1.40
2019-04-25T03:26:11.398Z,1.40
2019-04-25T03:28:39.469Z,1.33
2019-04-25T03:31:12.954Z,1.63
2019-04-25T03:33:38.494Z,1.60
2019-04-25T03:36:06.523Z,1.30
2019-04-25T03:38:34.294Z,1.30
2019-04-25T03:41:02.551Z,1.53
2019-04-25T03:43:30.332Z,1.57
2019-04-25T03:45:57.537Z,1.40
2019-04-25T03:48:25.215Z,1.30
2019-04-25T03:50:54.023Z,1.20
2019-04-25T03:53:21.428Z,1.57
2019-04-25T03:55:49.841Z,1.60
2019-04-25T03:58:17.289Z,1.30
2019-04-25T04:00:44.882Z,1.10
2019-04-25T04:03:14.221Z,1.30
2019-04-25T04:05:41.498Z,1.30
2019-04-25T04:08:09.702Z,1.40
2019-04-25T04:10:37.053Z,1.40
2019-04-25T04:13:06.291Z,1.30
2019-04-25T04:15:34.084Z,1.50
2019-04-25T04:18:09.211Z,1.27
2019-04-25T04:20:56.035Z,1.40
2019-04-25T04:23:29.024Z,1.40
2019-04-25T04:25:56.517Z,1.30
2019-04-25T04:28:23.845Z,1.20
2019-04-25T04:30:51.380Z,1.30
2019-04-25T04:33:29.479Z,1.30
2019-04-25T04:35:47.872Z,1.20
2019-04-25T04:38:16.155Z,1.20
2019-04-25T04:40:44.174Z,1.13
2019-04-25T04:43:11.889Z,1.20
2019-04-25T04:45:39.453Z,1.53
2019-04-25T04:48:06.991Z,1.10
2019-04-25T04:50:34.420Z,1.20
2019-04-25T04:53:01.739Z,1.07
2019-04-25T04:55:29.040Z,1.50
2019-04-25T04:57:56.350Z,1.30
2019-04-25T05:00:24.968Z,1.30
2019-04-25T05:03:00.624Z,1.27
2019-04-25T05:05:46.369Z,0.97
2019-04-25T05:08:28.869Z,1.10
2019-04-25T05:10:57.431Z,1.43
2019-04-25T05:13:24.851Z,1.50
2019-04-25T05:15:53.236Z,1.17
2019-04-25T05:18:34.638Z,1.20
2019-04-25T05:20:50.225Z,1.30
2019-04-25T05:23:17.705Z,1.20
2019-04-25T05:25:45.177Z,1.30
2019-04-25T05:28:13.149Z,0.93
2019-04-25T05:30:47.416Z,1.10
2019-04-25T05:33:18.433Z,1.10
2019-04-25T05:35:44.267Z,1.27
2019-04-25T05:38:13.241Z,1.33
2019-04-25T05:40:54.623Z,1.20
2019-04-25T05:43:25.752Z,1.37
2019-04-25T05:45:54.100Z,1.10
2019-04-25T05:48:21.416Z,1.30
2019-04-25T05:50:48.734Z,1.13
2019-04-25T05:53:16.307Z,1.20
2019-04-25T05:55:44.138Z,1.00
2019-04-25T05:58:11.509Z,1.40
2019-04-25T06:00:43.963Z,1.13
2019-04-25T06:03:11.367Z,1.10
2019-04-25T06:05:41.422Z,1.47
2019-04-25T06:08:08.628Z,1.00
2019-04-25T06:10:46.681Z,1.00
2019-04-25T06:13:39.938Z,1.10
2019-04-25T06:16:13.405Z,1.43
2019-04-25T06:18:49.692Z,1.23
2019-04-25T06:21:17.041Z,1.10
2019-04-25T06:24:15.921Z,0.87
2019-04-25T06:26:56.644Z,1.40
2019-04-25T06:29:24.806Z,1.20
2019-04-25T06:32:04.197Z,1.27
2019-04-25T06:34:21.754Z,1.13
2019-04-25T06:36:49.310Z,1.47
2019-04-25T06:39:17.057Z,1.13
2019-04-25T06:41:44.380Z,1.10
2019-04-25T06:44:29.383Z,1.20
2019-04-25T06:47:13.036Z,0.83
2019-04-25T06:49:41.073Z,1.10
2019-04-25T06:52:09.517Z,1.10
2019-04-25T06:54:36.749Z,1.07
2019-04-25T06:57:05.694Z,1.37
2019-04-25T06:59:34.485Z,1.13
2019-04-25T07:02:04.082Z,1.10
2019-04-25T07:04:31.346Z,0.80
2019-04-25T07:07:09.727Z,1.17
2019-04-25T07:09:29.545Z,1.20
2019-04-25T07:11:57.333Z,1.10
2019-04-25T07:14:25.911Z,0.90
2019-04-25T07:16:53.807Z,1.00
2019-04-25T07:19:21.133Z,1.20
2019-04-25T07:21:48.460Z,1.03
2019-04-25T07:24:17.495Z,1.00
2019-04-25T07:27:01.104Z,1.10
2019-04-25T07:29:39.968Z,1.10
2019-04-25T07:32:16.694Z,0.90
2019-04-25T07:34:44.492Z,0.90
2019-04-25T07:37:13.205Z,0.77
2019-04-25T07:39:40.601Z,0.83
2019-04-25T07:42:07.925Z,1.00
2019-04-25T07:44:48.921Z,1.03
2019-04-25T07:47:05.839Z,0.90
2019-04-25T07:49:33.597Z,0.80
2019-04-25T07:52:03.580Z,1.10
2019-04-25T07:54:30.986Z,0.90
2019-04-25T07:56:58.326Z,0.90
2019-04-25T07:59:25.544Z,0.90
2019-04-25T08:01:53.788Z,0.97
2019-04-25T08:04:21.291Z,0.87
2019-04-25T08:06:48.694Z,1.00
2019-04-25T08:09:16.824Z,0.80
2019-04-25T08:11:44.398Z,1.20
2019-04-25T08:14:35.921Z,0.97
2019-04-25T08:17:04.465Z,0.93
2019-04-25T08:19:33.218Z,0.77
2019-04-25T08:22:00.920Z,1.00
2019-04-25T08:24:28.358Z,0.73
2019-04-25T08:26:56.728Z,1.00
2019-04-25T08:29:25.484Z,0.93
2019-04-25T08:31:53.623Z,1.07
2019-04-25T08:34:21.244Z,0.90
2019-04-25T08:36:51.552Z,0.97
2019-04-25T08:39:21.993Z,0.90
2019-04-25T08:41:54.009Z,0.90
2019-04-25T08:44:21.489Z,1.17
2019-04-25T08:46:49.197Z,0.90
2019-04-25T08:49:34.954Z,0.67
2019-04-25T08:52:04.105Z,1.00
2019-04-25T08:54:44.378Z,0.80
2019-04-25T08:57:18.749Z,0.83
2019-04-25T08:59:55.585Z,0.87
2019-04-25T09:02:36.156Z,0.83
2019-04-25T09:05:28.005Z,1.00
2019-04-25T09:07:55.313Z,1.10
2019-04-25T09:10:23.745Z,0.93
2019-04-25T09:12:51.029Z,0.90
2019-04-25T09:15:18.750Z,0.80
2019-04-25T09:17:47.195Z,0.80
2019-04-25T09:20:14.798Z,0.90
2019-04-25T09:22:44.249Z,0.80
2019-04-25T09:25:13.717Z,1.00
2019-04-25T09:27:42.026Z,1.10
2019-04-25T09:30:10.391Z,0.80
2019-04-25T09:32:38.251Z,0.90
2019-04-25T09:35:06.024Z,0.97
2019-04-25T09:37:34.455Z,1.00
2019-04-25T09:40:07.301Z,0.80
2019-04-25T09:42:35.645Z,1.00
2019-04-25T09:45:10.117Z,0.80
2019-04-25T09:47:39.205Z,0.90
2019-04-25T09:50:10.257Z,0.93
2019-04-25T09:52:37.844Z,0.93
2019-04-25T09:55:29.751Z,1.00
2019-04-25T09:58:04.972Z,0.90
2019-04-25T10:00:38.193Z,0.70
2019-04-25T10:03:05.865Z,0.77
2019-04-25T10:05:33.955Z,1.03
2019-04-25T10:08:03.042Z,1.10
2019-04-25T10:10:30.654Z,0.90
2019-04-25T10:12:58.143Z,0.60
2019-04-25T10:16:04.148Z,0.87
2019-04-25T10:18:33.341Z,0.60
2019-04-25T10:21:01.157Z,0.70
2019-04-25T10:23:28.714Z,0.73
2019-04-25T10:25:56.048Z,0.87
2019-04-25T10:28:24.318Z,0.87
2019-04-25T10:30:53.153Z,0.90
2019-04-25T10:33:21.169Z,0.90
2019-04-25T10:35:53.119Z,0.93
2019-04-25T10:38:17.776Z,0.70
2019-04-25T10:40:46.136Z,0.80
2019-04-25T10:43:14.357Z,0.90
2019-04-25T10:45:42.370Z,0.80
2019-04-25T10:48:09.785Z,0.80
2019-04-25T10:50:37.618Z,0.90
2019-04-25T10:53:05.235Z,0.70
2019-04-25T10:55:32.777Z,1.00
2019-04-25T10:58:00.364Z,1.00
2019-04-25T11:00:36.620Z,0.90
2019-04-25T11:03:24.195Z,0.80
2019-04-25T11:05:54.392Z,0.83
2019-04-25T11:08:24.702Z,0.83
2019-04-25T11:10:53.771Z,0.73
2019-04-25T11:13:21.532Z,0.73
2019-04-25T11:15:49.754Z,0.90
2019-04-25T11:18:17.232Z,0.70
2019-04-25T11:20:44.758Z,1.13
2019-04-25T11:23:13.879Z,1.10
2019-04-25T11:25:41.514Z,1.10
2019-04-25T11:28:10.436Z,0.83
2019-04-25T11:30:38.628Z,1.03
2019-04-25T11:33:07.366Z,1.10
2019-04-25T11:35:34.815Z,1.37
2019-04-25T11:38:05.557Z,0.90
2019-04-25T11:40:38.587Z,0.73
2019-04-25T11:43:05.946Z,0.80
2019-04-25T11:45:34.612Z,0.80
2019-04-25T11:48:02.571Z,1.10
2019-04-25T11:50:29.969Z,1.03
2019-04-25T11:52:57.732Z,0.87
2019-04-25T11:55:25.055Z,0.83
2019-04-25T11:59:29.380Z,0.90
2019-04-25T12:01:58.491Z,1.00
2019-04-25T12:04:27.511Z,0.80
2019-04-25T12:06:56.621Z,1.00
2019-04-25T12:09:25.033Z,0.80
2019-04-25T12:11:56.102Z,0.97
2019-04-25T12:14:25.632Z,1.00
2019-04-25T12:16:56.106Z,1.03
2019-04-25T12:19:34.569Z,0.83
2019-04-25T12:21:57.900Z,1.30
2019-04-25T12:24:26.308Z,0.90
2019-04-25T12:26:55.118Z,1.17
2019-04-25T12:29:24.317Z,0.90
2019-04-25T12:31:54.832Z,1.10
2019-04-25T12:34:24.297Z,1.03
2019-04-25T12:36:52.817Z,1.10
2019-04-25T12:39:24.555Z,1.17
2019-04-25T12:41:52.090Z,1.17
2019-04-25T12:44:41.759Z,1.23
2019-04-25T12:47:14.527Z,1.40
2019-04-25T12:49:43.849Z,1.20
2019-04-25T12:52:11.287Z,1.10
2019-04-25T12:54:40.933Z,1.03
2019-04-25T12:57:08.858Z,1.10
2019-04-25T12:59:36.192Z,1.13
2019-04-25T13:02:04.651Z,1.00
2019-04-25T13:04:33.128Z,1.20
2019-04-25T13:07:01.595Z,0.90
2019-04-25T13:09:29.055Z,1.20
2019-04-25T13:11:56.437Z,1.20
2019-04-25T13:14:23.768Z,1.40
2019-04-25T13:16:51.608Z,1.20
2019-04-25T13:19:23.954Z,1.40
2019-04-25T13:21:48.113Z,1.17
2019-04-25T13:24:15.485Z,0.97
2019-04-25T13:26:49.791Z,1.20
2019-04-25T13:29:35.380Z,1.07
2019-04-25T13:32:31.520Z,1.20
2019-04-25T13:35:00.951Z,1.00
2019-04-25T13:37:28.337Z,0.90
2019-04-25T13:39:55.719Z,1.17
2019-04-25T13:42:23.323Z,1.03
2019-04-25T13:44:50.692Z,1.00
2019-04-25T13:47:18.334Z,0.93
2019-04-25T13:49:45.815Z,1.27
2019-04-25T13:52:13.440Z,1.10
2019-04-25T13:54:40.953Z,1.40
2019-04-25T13:57:08.466Z,1.40
2019-04-25T13:59:35.856Z,1.20
2019-04-25T14:02:05.308Z,1.20
2019-04-25T14:04:35.595Z,1.43
2019-04-25T14:07:02.764Z,1.27
2019-04-25T14:09:30.816Z,1.00
2019-04-25T14:11:58.381Z,0.93
2019-04-25T14:14:26.577Z,1.00
2019-04-25T14:17:19.574Z,1.03
2019-04-25T14:20:15.645Z,0.83
2019-04-25T14:22:45.399Z,1.30
2019-04-25T14:25:14.848Z,1.10
2019-04-25T14:27:43.420Z,1.43
2019-04-25T14:30:13.495Z,1.03
2019-04-25T14:32:41.097Z,1.30
2019-04-25T14:35:08.635Z,1.37
2019-04-25T14:37:39.551Z,1.20
2019-04-25T14:40:06.264Z,1.30
2019-04-25T14:42:33.801Z,1.30
2019-04-25T14:45:01.285Z,0.97
2019-04-25T14:47:29.527Z,1.13
2019-04-25T14:49:57.252Z,1.27
2019-04-25T14:52:24.591Z,1.13
2019-04-25T14:54:58.124Z,1.23
2019-04-25T14:57:29.816Z,1.77
2019-04-25T15:00:01.829Z,1.20
2019-04-25T15:02:30.782Z,1.20
2019-04-25T15:04:59.666Z,1.30
2019-04-25T15:07:27.918Z,1.77
2019-04-25T15:09:56.833Z,1.63
2019-04-25T15:12:28.107Z,1.23
2019-04-25T15:14:57.518Z,1.20
2019-04-25T15:17:24.981Z,1.57
2019-04-25T15:19:52.341Z,1.40
2019-04-25T15:22:19.798Z,1.50
2019-04-25T15:24:47.017Z,1.57
2019-04-25T15:27:14.349Z,1.47
2019-04-25T15:29:42.438Z,1.43
2019-04-25T15:32:13.985Z,1.27
2019-04-25T15:34:56.018Z,1.13
2019-04-25T15:37:30.506Z,1.40
2019-04-25T15:40:03.780Z,1.30
2019-04-25T15:42:47.068Z,1.43
2019-04-25T15:45:43.654Z,1.37
2019-04-25T15:48:11.308Z,1.40
2019-04-25T15:50:41.409Z,1.30
2019-04-25T15:53:10.281Z,1.90
2019-04-25T15:55:38.661Z,1.03
2019-04-25T15:58:06.173Z,1.33
2019-04-25T16:00:37.584Z,1.50
2019-04-25T16:03:08.072Z,1.40
2019-04-25T16:05:36.682Z,1.50
2019-04-25T16:08:05.087Z,1.57
2019-04-25T16:10:33.995Z,1.30
2019-04-25T16:13:01.664Z,1.13
2019-04-25T16:15:31.031Z,1.40
2019-04-25T16:17:59.687Z,0.97
2019-04-25T16:20:29.507Z,1.33
2019-04-25T16:22:58.634Z,1.53
2019-04-25T16:25:26.138Z,1.03
2019-04-25T16:27:53.780Z,1.30
2019-04-25T16:30:27.313Z,1.50
2019-04-25T16:32:55.965Z,1.47
2019-04-25T16:35:23.585Z,1.50
2019-04-25T16:37:52.429Z,1.43
2019-04-25T16:40:20.049Z,1.60
2019-04-25T16:42:51.154Z,1.33
2019-04-25T16:45:18.898Z,1.53
2019-04-25T16:47:46.226Z,1.27
2019-04-25T16:50:15.864Z,1.30
2019-04-25T16:52:43.585Z,1.40
2019-04-25T16:55:12.950Z,1.57
2019-04-25T16:57:40.488Z,1.13
2019-04-25T17:00:11.222Z,1.60
2019-04-25T17:02:42.060Z,1.20
2019-04-25T17:05:10.603Z,1.20
2019-04-25T17:07:39.356Z,1.50
2019-04-25T17:10:06.696Z,1.33
2019-04-25T17:12:34.365Z,1.30
2019-04-25T17:15:17.595Z,1.10
2019-04-25T17:18:03.049Z,1.50
2019-04-25T17:20:36.730Z,1.67
2019-04-25T17:23:04.865Z,1.10
2019-04-25T17:25:32.769Z,1.53
2019-04-25T17:28:00.106Z,1.40
2019-04-25T17:30:29.217Z,1.60
2019-04-25T17:33:06.693Z,1.60
2019-04-25T17:35:47.717Z,1.23
2019-04-25T17:38:22.912Z,1.47
2019-04-25T17:40:50.903Z,1.00
2019-04-25T17:43:19.917Z,1.50
2019-04-25T17:45:47.608Z,1.33
2019-04-25T17:48:17.454Z,1.63
2019-04-25T17:50:45.256Z,1.30
2019-04-25T17:53:12.733Z,1.20
2019-04-25T17:55:40.042Z,1.40
2019-04-25T17:58:07.490Z,1.40
2019-04-25T18:00:40.135Z,1.20
2019-04-25T18:03:10.400Z,1.60
2019-04-25T18:05:40.046Z,1.40
2019-04-25T18:08:07.576Z,1.60
2019-04-25T18:10:35.643Z,1.50
2019-04-25T18:13:04.525Z,1.37
2019-04-25T18:15:47.939Z,1.50
2019-04-25T18:18:30.114Z,1.37
2019-04-25T18:20:57.706Z,1.27
2019-04-25T18:24:03.004Z,1.53
2019-04-25T18:26:36.739Z,1.40
2019-04-25T18:29:07.817Z,1.10
2019-04-25T18:31:35.655Z,1.47
2019-04-25T18:34:06.032Z,1.40
2019-04-25T18:36:48.946Z,1.40
2019-04-25T18:39:23.380Z,1.17
2019-04-25T18:42:16.249Z,1.50
2019-04-25T18:44:47.744Z,1.00
2019-04-25T18:47:15.185Z,1.23
2019-04-25T18:49:44.656Z,1.40
2019-04-25T18:52:32.379Z,1.40
2019-04-25T18:55:10.342Z,1.40
2019-04-25T18:57:45.674Z,1.33
2019-04-25T19:00:39.182Z,1.20
2019-04-25T19:03:35.191Z,1.37
2019-04-25T19:06:06.799Z,1.30
2019-04-25T19:08:34.497Z,1.40
2019-04-25T19:11:03.395Z,1.40
2019-04-25T19:13:31.348Z,1.00
2019-04-25T19:16:03.504Z,1.10
2019-04-25T19:18:30.830Z,1.30
2019-04-25T19:20:58.432Z,1.10
2019-04-25T19:23:25.897Z,1.13
2019-04-25T19:25:53.205Z,1.23
2019-04-25T19:28:20.592Z,1.13
2019-04-25T19:30:47.998Z,1.20
2019-04-25T19:33:15.523Z,1.27
2019-04-25T19:35:43.628Z,1.57
2019-04-25T19:38:10.981Z,1.60
2019-04-25T19:40:46.564Z,1.33
2019-04-25T19:43:33.517Z,1.17
2019-04-25T19:46:00.845Z,1.40
2019-04-25T19:48:29.080Z,1.43
2019-04-25T19:50:57.487Z,1.50
2019-04-25T19:53:25.087Z,1.77
2019-04-25T19:55:53.453Z,1.27
2019-04-25T19:58:20.669Z,1.10
2019-04-25T20:00:50.829Z,1.00
2019-04-25T20:03:24.097Z,1.30
2019-04-25T20:06:06.885Z,1.30
2019-04-25T20:09:00.125Z,1.43
2019-04-25T20:11:33.570Z,1.40
2019-04-25T20:14:01.168Z,1.40
2019-04-25T20:16:30.435Z,1.13
2019-04-25T20:18:57.791Z,1.57
2019-04-25T20:21:25.314Z,1.50
2019-04-25T20:23:52.546Z,1.23
2019-04-25T20:26:19.860Z,1.60
2019-04-25T20:28:48.161Z,1.30
2019-04-25T20:31:15.626Z,1.30
2019-04-25T20:39:29.291Z,1.40
2019-04-25T20:41:56.823Z,1.40
2019-04-25T20:44:24.648Z,1.60
2019-04-25T20:46:52.640Z,1.47
2019-04-25T20:49:21.109Z,1.30
2019-04-25T20:51:48.491Z,1.00
2019-04-25T20:54:16.128Z,1.70
2019-04-25T20:56:43.452Z,1.27
2019-04-25T20:59:14.438Z,1.30
2019-04-25T21:01:42.165Z,1.30
2019-04-25T21:04:29.711Z,1.23
2019-04-25T21:06:57.324Z,1.20
2019-04-25T21:09:24.665Z,1.50
2019-04-25T21:11:53.328Z,1.53
2019-04-25T21:14:50.628Z,1.30
2019-04-25T21:17:25.519Z,1.10
2019-04-25T21:19:53.049Z,1.10
2019-04-25T21:22:20.433Z,1.37
2019-04-25T21:24:47.751Z,1.47
2019-04-25T21:27:16.525Z,1.17
2019-04-25T21:29:44.251Z,1.30
2019-04-25T21:32:15.808Z,1.50
2019-04-25T21:34:43.190Z,1.27
2019-04-25T21:37:13.694Z,1.50
2019-04-25T21:39:49.282Z,1.60
2019-04-25T21:42:24.601Z,1.03
2019-04-25T21:44:54.106Z,1.10
2019-04-25T21:47:23.160Z,1.40
2019-04-25T21:49:50.471Z,1.40
2019-04-25T21:52:18.185Z,1.60
2019-04-25T21:54:48.616Z,1.60
2019-04-25T21:57:19.549Z,1.10
2019-04-25T22:00:00.406Z,1.37
2019-04-25T22:02:18.310Z,1.17
2019-04-25T22:04:46.650Z,1.33
2019-04-25T22:07:14.188Z,1.10
2019-04-25T22:09:41.698Z,1.57
2019-04-25T22:12:10.681Z,1.53
2019-04-25T22:14:38.665Z,1.47
2019-04-25T22:17:09.335Z,1.70
2019-04-25T22:19:37.729Z,1.10
2019-04-25T22:22:06.871Z,1.40
2019-04-25T22:24:36.113Z,1.43
2019-04-25T22:27:07.801Z,1.27
2019-04-25T22:29:42.403Z,0.90
2019-04-25T22:32:24.574Z,1.67
2019-04-25T22:35:14.042Z,1.30
2019-04-25T22:37:41.268Z,1.53
2019-04-25T22:40:10.136Z,1.40
2019-04-25T22:42:38.137Z,1.40
2019-04-25T22:45:05.884Z,1.60
2019-04-25T22:47:33.587Z,1.53
2019-04-25T22:50:01.727Z,1.80
2019-04-25T22:52:30.242Z,1.40
2019-04-25T22:54:57.586Z,1.43
2019-04-25T22:57:27.528Z,1.73
2019-04-25T22:59:56.898Z,1.23
2019-04-25T23:02:33.741Z,1.53
2019-04-25T23:05:29.428Z,1.40
2019-04-25T23:07:59.058Z,1.83
2019-04-25T23:10:26.924Z,2.00
2019-04-25T23:12:58.041Z,1.40
2019-04-25T23:15:26.542Z,1.53
2019-04-25T23:17:54.375Z,1.20
2019-04-25T23:20:21.689Z,1.53
2019-04-25T23:22:49.017Z,1.23
2019-04-25T23:25:19.764Z,1.87
2019-04-25T23:28:01.814Z,1.50
2019-04-25T23:30:35.280Z,1.47
2019-04-25T23:33:02.585Z,1.53
2019-04-25T23:35:31.882Z,1.50
2019-04-25T23:37:59.146Z,1.50
2019-04-25T23:40:26.661Z,1.50
2019-04-25T23:42:54.213Z,1.30
2019-04-25T23:45:21.525Z,1.50
2019-04-25T23:47:48.865Z,1.60
2019-04-25T23:50:16.836Z,1.47
2019-04-25T23:52:44.204Z,1.60
2019-04-25T23:55:13.074Z,1.50
2019-04-25T23:57:41.222Z,1.57
